createdAt,value
2018-05-26T00:00:47.319Z,89.70
2018-05-26T00:03:13.687Z,85.03
2018-05-26T00:05:40.063Z,82.70
2018-05-26T00:08:07.471Z,86.13
2018-05-26T00:10:34.833Z,85.53
2018-05-26T00:13:01.167Z,84.97
2018-05-26T00:15:27.489Z,84.00
2018-05-26T00:17:53.817Z,84.30
2018-05-26T00:20:20.170Z,88.27
2018-05-26T00:22:52.608Z,89.03
2018-05-26T00:25:18.921Z,85.70
2018-05-26T00:27:45.331Z,84.80
2018-05-26T00:30:11.716Z,83.93
2018-05-26T00:32:38.093Z,85.70
2018-05-26T00:35:04.517Z,83.03
2018-05-26T00:37:32.528Z,87.70
2018-05-26T00:39:58.855Z,85.80
2018-05-26T00:42:26.871Z,83.80
2018-05-26T00:44:53.271Z,81.00
2018-05-26T00:47:19.599Z,78.30
2018-05-26T00:49:45.943Z,89.33
2018-05-26T00:52:12.539Z,84.07
2018-05-26T00:54:38.838Z,82.87
2018-05-26T00:57:09.720Z,78.77
2018-05-26T00:59:36.057Z,83.33
2018-05-26T01:02:02.491Z,84.67
2018-05-26T01:04:29.431Z,85.07
2018-05-26T01:06:56.779Z,86.30
2018-05-26T01:09:23.117Z,87.53
2018-05-26T01:11:49.457Z,86.50
2018-05-26T01:14:15.837Z,87.37
2018-05-26T01:16:42.969Z,86.87
2018-05-26T01:19:09.301Z,86.37
2018-05-26T01:21:35.647Z,85.63
2018-05-26T01:24:04.381Z,85.83
2018-05-26T01:26:32.335Z,85.40
2018-05-26T01:28:58.647Z,85.23
2018-05-26T01:31:24.987Z,83.20
2018-05-26T01:33:51.355Z,84.17
2018-05-26T01:36:18.185Z,82.97
2018-05-26T01:38:44.616Z,83.27
2018-05-26T01:41:11.107Z,81.73
2018-05-26T01:43:38.189Z,82.23
2018-05-26T01:46:06.235Z,81.53
2018-05-26T01:48:33.964Z,87.13
2018-05-26T01:51:00.391Z,84.30
2018-05-26T01:53:26.715Z,83.17
2018-05-26T01:55:53.055Z,83.60
2018-05-26T01:58:19.391Z,87.00
2018-05-26T02:00:45.747Z,86.17
2018-05-26T02:03:12.043Z,88.70
2018-05-26T02:05:38.367Z,82.37
2018-05-26T02:08:04.768Z,83.13
2018-05-26T02:10:32.823Z,81.23
2018-05-26T02:12:59.149Z,79.43
2018-05-26T02:15:26.193Z,77.93
2018-05-26T02:17:52.526Z,83.00
2018-05-26T02:20:19.663Z,79.97
2018-05-26T02:22:45.945Z,80.93
2018-05-26T02:25:12.285Z,80.27
2018-05-26T02:27:38.606Z,73.30
2018-05-26T02:30:04.969Z,73.17
2018-05-26T02:32:31.363Z,73.73
2018-05-26T02:34:57.739Z,77.33
2018-05-26T02:37:24.142Z,75.70
2018-05-26T02:39:50.551Z,73.53
2018-05-26T02:42:16.957Z,76.17
2018-05-26T02:44:43.247Z,69.10
2018-05-26T02:47:09.543Z,68.77
2018-05-26T02:49:36.617Z,69.33
2018-05-26T02:52:02.919Z,71.73
2018-05-26T02:54:29.257Z,68.97
2018-05-26T02:56:55.683Z,64.30
2018-05-26T02:59:22.006Z,68.30
2018-05-26T03:01:48.345Z,72.07
2018-05-26T03:04:21.479Z,72.50
2018-05-26T03:06:53.803Z,70.03
2018-05-26T03:09:26.190Z,67.20
2018-05-26T03:11:58.535Z,64.07
2018-05-26T03:14:30.903Z,66.50
2018-05-26T03:16:57.252Z,66.33
2018-05-26T03:19:24.342Z,65.10
2018-05-26T03:21:50.724Z,65.17
2018-05-26T03:24:18.409Z,67.20
2018-05-26T03:26:45.503Z,67.33
2018-05-26T03:29:11.899Z,68.70
2018-05-26T03:31:38.335Z,70.10
2018-05-26T03:34:04.761Z,69.20
2018-05-26T03:36:31.159Z,69.33
2018-05-26T03:38:57.487Z,71.93
2018-05-26T03:41:23.815Z,69.67
2018-05-26T03:43:51.101Z,67.63
2018-05-26T03:46:19.242Z,71.50
2018-05-26T03:48:45.647Z,69.87
2018-05-26T03:51:12.027Z,69.53
2018-05-26T03:53:39.075Z,68.10
2018-05-26T03:56:18.263Z,65.40
2018-05-26T03:58:56.687Z,64.30
2018-05-26T04:01:23.115Z,64.43
2018-05-26T04:03:50.951Z,61.30
2018-05-26T04:06:17.639Z,64.00
2018-05-26T04:08:44.904Z,63.73
2018-05-26T04:11:12.409Z,62.33
2018-05-26T04:13:38.711Z,64.10
2018-05-26T04:16:05.779Z,59.97
2018-05-26T04:18:32.058Z,55.90
2018-05-26T04:20:58.331Z,56.93
2018-05-26T04:23:24.635Z,57.00
2018-05-26T04:25:52.421Z,59.17
2018-05-26T04:28:19.455Z,54.83
2018-05-26T04:30:46.480Z,56.47
2018-05-26T04:33:12.762Z,54.00
2018-05-26T04:35:39.054Z,55.27
2018-05-26T04:38:05.355Z,53.53
2018-05-26T04:40:31.706Z,53.20
2018-05-26T04:42:57.976Z,51.60
2018-05-26T04:45:25.014Z,50.13
2018-05-26T04:47:52.064Z,52.87
2018-05-26T04:50:19.096Z,52.60
2018-05-26T04:52:46.173Z,52.83
2018-05-26T04:55:12.466Z,53.23
2018-05-26T04:57:38.780Z,53.67
2018-05-26T05:00:05.109Z,54.83
2018-05-26T05:02:31.400Z,62.73
2018-05-26T05:04:57.706Z,58.57
2018-05-26T05:07:24.756Z,55.70
2018-05-26T05:09:51.051Z,56.30
2018-05-26T05:12:17.333Z,57.43
2018-05-26T05:14:43.612Z,59.83
2018-05-26T05:17:09.932Z,60.53
2018-05-26T05:19:36.241Z,60.63
2018-05-26T05:22:02.556Z,59.93
2018-05-26T05:24:28.865Z,60.87
2018-05-26T05:26:55.924Z,62.13
2018-05-26T05:29:23.004Z,58.90
2018-05-26T05:31:49.318Z,58.17
2018-05-26T05:34:15.608Z,58.30
2018-05-26T05:36:41.905Z,59.10
2018-05-26T05:39:08.197Z,59.60
2018-05-26T05:41:34.513Z,59.07
2018-05-26T05:44:01.543Z,59.23
2018-05-26T05:46:28.615Z,57.80
2018-05-26T05:48:55.698Z,58.53
2018-05-26T05:51:21.976Z,59.50
2018-05-26T05:53:48.280Z,58.10
2018-05-26T05:56:14.582Z,57.13
2018-05-26T05:58:40.901Z,56.70
2018-05-26T06:01:07.919Z,58.00
2018-05-26T06:03:34.967Z,54.97
2018-05-26T06:06:01.264Z,53.33
2018-05-26T06:08:27.548Z,52.10
2018-05-26T06:10:53.829Z,51.27
2018-05-26T06:13:20.136Z,49.77
2018-05-26T06:15:46.436Z,49.30
2018-05-26T06:18:13.788Z,46.50
2018-05-26T06:20:40.122Z,47.27
2018-05-26T06:23:07.132Z,45.70
2018-05-26T06:25:34.178Z,44.87
2018-05-26T06:28:00.486Z,42.30
2018-05-26T06:30:26.757Z,42.30
2018-05-26T06:32:53.037Z,40.70
2018-05-26T06:35:19.346Z,41.37
2018-05-26T06:37:45.717Z,38.33
2018-05-26T06:40:11.971Z,38.57
2018-05-26T06:42:38.304Z,36.40
2018-05-26T06:45:04.601Z,36.77
2018-05-26T06:47:30.899Z,35.17
2018-05-26T06:49:57.181Z,34.40
2018-05-26T06:52:23.448Z,34.23
2018-05-26T06:54:50.478Z,30.47
2018-05-26T06:57:18.257Z,31.27
2018-05-26T06:59:44.538Z,31.10
2018-05-26T07:02:10.836Z,29.53
2018-05-26T07:04:37.124Z,29.07
2018-05-26T07:07:03.442Z,28.37
2018-05-26T07:09:29.725Z,27.10
2018-05-26T07:11:56.033Z,26.70
2018-05-26T07:14:23.067Z,25.07
2018-05-26T07:16:49.433Z,25.03
2018-05-26T07:19:16.478Z,22.83
2018-05-26T07:21:42.763Z,19.42
2018-05-26T07:24:09.090Z,19.60
2018-05-26T07:26:35.392Z,16.87
2018-05-26T07:29:01.714Z,15.23
2018-05-26T07:31:28.023Z,15.67
2018-05-26T07:33:55.059Z,15.60
2018-05-26T07:36:22.069Z,16.97
2018-05-26T07:38:48.423Z,17.40
2018-05-26T07:41:14.859Z,15.37
2018-05-26T07:43:41.165Z,14.60
2018-05-26T07:46:07.449Z,15.80
2018-05-26T07:48:34.505Z,16.17
2018-05-26T07:51:00.825Z,16.87
2018-05-26T07:53:27.111Z,17.80
2018-05-26T07:55:53.444Z,17.03
2018-05-26T07:58:19.772Z,16.90
2018-05-26T08:00:46.046Z,17.10
2018-05-26T08:03:13.080Z,17.27
2018-05-26T08:05:39.459Z,17.00
2018-05-26T08:08:05.761Z,15.97
2018-05-26T08:10:32.795Z,18.07
2018-05-26T08:12:59.841Z,16.37
2018-05-26T08:15:26.909Z,16.70
2018-05-26T08:17:53.990Z,17.67
2018-05-26T08:20:20.285Z,17.43
2018-05-26T08:22:47.332Z,17.07
2018-05-26T08:25:13.630Z,17.47
2018-05-26T08:27:39.929Z,18.77
2018-05-26T08:30:06.264Z,16.30
2018-05-26T08:32:32.594Z,15.80
2018-05-26T08:34:59.837Z,16.53
2018-05-26T08:37:27.071Z,14.77
2018-05-26T08:39:53.983Z,16.53
2018-05-26T08:42:20.999Z,14.30
2018-05-26T08:44:47.654Z,13.33
2018-05-26T08:47:14.109Z,13.32
2018-05-26T08:49:40.493Z,12.77
2018-05-26T08:52:06.934Z,12.77
2018-05-26T08:54:33.277Z,11.45
2018-05-26T08:56:59.684Z,9.23
2018-05-26T08:59:27.195Z,10.60
2018-05-26T09:01:54.352Z,10.63
2018-05-26T09:04:20.663Z,10.40
2018-05-26T09:06:47.276Z,9.98
2018-05-26T09:09:13.567Z,9.50
2018-05-26T09:11:39.857Z,9.07
2018-05-26T09:14:06.165Z,7.82
2018-05-26T09:16:32.477Z,7.37
2018-05-26T09:18:58.958Z,9.02
2018-05-26T09:21:25.260Z,9.25
2018-05-26T09:23:51.684Z,8.90
2018-05-26T09:26:17.988Z,8.70
2018-05-26T09:28:45.020Z,8.40
2018-05-26T09:31:12.088Z,8.57
2018-05-26T09:33:38.366Z,8.07
2018-05-26T09:36:06.852Z,7.50
2018-05-26T09:38:33.159Z,8.57
2018-05-26T09:40:59.447Z,8.70
2018-05-26T09:43:26.567Z,7.62
2018-05-26T09:45:52.924Z,7.10
2018-05-26T09:48:19.208Z,7.60
2018-05-26T09:50:45.504Z,8.48
2018-05-26T09:53:11.801Z,8.90
2018-05-26T09:55:38.090Z,8.75
2018-05-26T09:58:08.078Z,8.45
2018-05-26T10:00:34.373Z,7.93
2018-05-26T10:03:00.663Z,9.00
2018-05-26T10:05:27.017Z,8.35
2018-05-26T10:07:55.292Z,9.80
2018-05-26T10:10:21.582Z,10.57
2018-05-26T10:12:47.880Z,8.80
2018-05-26T10:15:14.160Z,9.30
2018-05-26T10:17:40.586Z,8.60
2018-05-26T10:20:06.908Z,8.40
2018-05-26T10:22:33.196Z,8.93
2018-05-26T10:24:59.477Z,8.10
2018-05-26T10:27:25.907Z,7.80
2018-05-26T10:29:52.207Z,7.83
2018-05-26T10:32:18.546Z,6.97
2018-05-26T10:34:44.780Z,7.65
2018-05-26T10:37:11.846Z,7.70
2018-05-26T10:39:38.150Z,7.07
2018-05-26T10:42:04.449Z,8.00
2018-05-26T10:44:31.486Z,6.55
2018-05-26T10:46:58.825Z,5.73
2018-05-26T10:49:25.105Z,6.33
2018-05-26T10:51:51.403Z,5.67
2018-05-26T10:54:17.731Z,6.37
2018-05-26T10:56:44.132Z,6.10
2018-05-26T10:59:10.434Z,5.80
2018-05-26T11:01:36.716Z,5.60
2018-05-26T11:04:03.006Z,5.50
2018-05-26T11:06:45.245Z,5.53
2018-05-26T11:09:11.899Z,5.83
2018-05-26T11:11:38.219Z,6.10
2018-05-26T11:14:04.532Z,6.07
2018-05-26T11:16:32.059Z,6.10
2018-05-26T11:18:59.125Z,5.67
2018-05-26T11:21:25.416Z,6.27
2018-05-26T11:23:51.698Z,5.87
2018-05-26T11:26:18.136Z,6.00
2018-05-26T11:28:44.701Z,6.00
2018-05-26T11:31:11.092Z,6.10
2018-05-26T11:33:37.382Z,6.60
2018-05-26T11:36:07.146Z,5.87
2018-05-26T11:38:33.494Z,6.27
2018-05-26T11:40:59.781Z,6.70
2018-05-26T11:43:27.960Z,6.20
2018-05-26T11:45:54.990Z,6.47
2018-05-26T11:48:21.306Z,6.20
2018-05-26T11:50:47.595Z,5.90
2018-05-26T11:53:13.866Z,5.93
2018-05-26T11:55:40.140Z,6.73
2018-05-26T11:58:06.430Z,5.73
2018-05-26T12:00:32.714Z,5.80
2018-05-26T12:02:58.994Z,5.30
2018-05-26T12:05:25.263Z,5.20
2018-05-26T12:07:51.560Z,5.63
2018-05-26T12:10:17.967Z,6.00
2018-05-26T12:12:44.329Z,5.40
2018-05-26T12:15:10.606Z,4.33
2018-05-26T12:17:36.883Z,4.60
2018-05-26T12:20:03.191Z,4.50
2018-05-26T12:22:29.461Z,4.90
2018-05-26T12:24:56.494Z,5.67
2018-05-26T12:27:22.791Z,5.30
2018-05-26T12:29:49.074Z,4.87
2018-05-26T12:32:16.088Z,4.67
2018-05-26T12:34:42.486Z,4.40
2018-05-26T12:37:08.768Z,4.10
2018-05-26T12:39:35.796Z,4.70
2018-05-26T12:42:02.200Z,4.30
2018-05-26T12:44:28.472Z,4.33
2018-05-26T12:46:54.757Z,4.50
2018-05-26T12:49:21.132Z,4.10
2018-05-26T12:51:47.416Z,4.10
2018-05-26T12:54:13.710Z,3.90
2018-05-26T12:56:40.010Z,3.97
2018-05-26T12:59:06.304Z,3.50
2018-05-26T13:01:32.592Z,3.90
2018-05-26T13:03:59.629Z,3.80
2018-05-26T13:06:25.916Z,3.67
2018-05-26T13:08:52.225Z,3.60
2018-05-26T13:11:18.600Z,3.90
2018-05-26T13:13:44.885Z,4.27
2018-05-26T13:16:11.949Z,3.87
2018-05-26T13:18:38.222Z,3.77
2018-05-26T13:21:04.536Z,3.87
2018-05-26T13:23:30.826Z,4.23
2018-05-26T13:25:57.109Z,3.80
2018-05-26T13:28:23.407Z,3.40
2018-05-26T13:30:49.717Z,3.30
2018-05-26T13:33:16.036Z,3.73
2018-05-26T13:35:42.313Z,3.30
2018-05-26T13:38:08.602Z,3.77
2018-05-26T13:40:35.630Z,3.70
2018-05-26T13:43:02.667Z,3.50
2018-05-26T13:45:28.956Z,3.77
2018-05-26T13:47:55.260Z,4.23
2018-05-26T13:50:21.580Z,3.50
2018-05-26T13:52:47.895Z,4.90
2018-05-26T13:55:14.211Z,4.03
2018-05-26T13:57:42.660Z,4.37
2018-05-26T14:00:08.946Z,4.27
2018-05-26T14:02:37.452Z,4.23
2018-05-26T14:05:04.376Z,4.00
2018-05-26T14:07:31.415Z,4.87
2018-05-26T14:09:57.709Z,4.30
2018-05-26T14:12:24.236Z,4.80
2018-05-26T14:14:50.507Z,4.83
2018-05-26T14:17:16.804Z,4.60
2018-05-26T14:19:43.149Z,4.43
2018-05-26T14:22:09.445Z,4.30
2018-05-26T14:24:35.753Z,4.47
2018-05-26T14:27:02.063Z,4.23
2018-05-26T14:29:29.116Z,4.50
2018-05-26T14:31:55.389Z,4.47
2018-05-26T14:34:21.683Z,4.60
2018-05-26T14:36:47.968Z,4.50
2018-05-26T14:39:14.253Z,4.57
2018-05-26T14:41:41.304Z,4.63
2018-05-26T14:44:07.608Z,4.40
2018-05-26T14:46:33.914Z,4.87
2018-05-26T14:49:00.197Z,4.53
2018-05-26T14:51:27.323Z,4.50
2018-05-26T14:53:53.628Z,5.07
2018-05-26T14:56:23.100Z,4.77
2018-05-26T14:58:49.375Z,4.37
2018-05-26T15:01:15.681Z,4.37
2018-05-26T15:03:41.963Z,4.40
2018-05-26T15:06:08.249Z,4.67
2018-05-26T15:08:34.553Z,4.70
2018-05-26T15:11:00.861Z,4.50
2018-05-26T15:13:28.045Z,4.30
2018-05-26T15:15:54.331Z,4.53
2018-05-26T15:18:20.610Z,4.57
2018-05-26T15:20:46.899Z,4.00
2018-05-26T15:23:13.949Z,4.00
2018-05-26T15:25:40.961Z,4.57
2018-05-26T15:28:08.276Z,4.10
2018-05-26T15:30:34.591Z,3.73
2018-05-26T15:33:00.895Z,4.10
2018-05-26T15:35:27.927Z,4.20
2018-05-26T15:37:54.204Z,4.17
2018-05-26T15:40:20.478Z,4.00
2018-05-26T15:42:46.750Z,4.00
2018-05-26T15:45:13.038Z,4.20
2018-05-26T15:47:39.344Z,4.10
2018-05-26T15:50:05.611Z,3.83
2018-05-26T15:52:31.930Z,4.10
2018-05-26T15:54:58.200Z,4.20
2018-05-26T15:57:25.200Z,4.00
2018-05-26T15:59:51.520Z,3.77
2018-05-26T16:02:17.805Z,3.70
2018-05-26T16:04:44.087Z,3.90
2018-05-26T16:07:10.396Z,4.20
2018-05-26T16:09:36.714Z,4.13
2018-05-26T16:12:02.997Z,3.90
2018-05-26T16:14:29.404Z,3.53
2018-05-26T16:16:55.682Z,4.30
2018-05-26T16:19:22.799Z,4.07
2018-05-26T16:21:49.258Z,4.10
2018-05-26T16:24:15.527Z,3.70
2018-05-26T16:26:41.803Z,4.10
2018-05-26T16:29:08.163Z,3.70
2018-05-26T16:31:34.462Z,3.70
2018-05-26T16:34:00.757Z,3.70
2018-05-26T16:36:27.043Z,3.53
2018-05-26T16:38:53.328Z,3.67
2018-05-26T16:41:19.649Z,3.37
2018-05-26T16:43:45.952Z,3.70
2018-05-26T16:46:12.977Z,3.70
2018-05-26T16:48:39.263Z,3.63
2018-05-26T16:51:05.539Z,3.70
2018-05-26T16:53:32.590Z,3.60
2018-05-26T16:55:59.605Z,3.63
2018-05-26T16:58:25.916Z,3.57
2018-05-26T17:00:52.218Z,3.70
2018-05-26T17:03:18.509Z,3.70
2018-05-26T17:05:44.821Z,3.80
2018-05-26T17:08:11.101Z,3.80
2018-05-26T17:10:38.144Z,3.80
2018-05-26T17:13:04.440Z,4.00
2018-05-26T17:15:31.051Z,3.80
2018-05-26T17:17:57.350Z,3.73
2018-05-26T17:20:24.367Z,4.00
2018-05-26T17:22:50.704Z,3.60
2018-05-26T17:25:17.016Z,3.60
2018-05-26T17:27:43.361Z,3.60
2018-05-26T17:30:09.662Z,4.00
2018-05-26T17:32:35.937Z,4.00
2018-05-26T17:35:02.998Z,3.87
2018-05-26T17:37:30.016Z,3.50
2018-05-26T17:39:56.325Z,3.93
2018-05-26T17:42:22.632Z,4.03
2018-05-26T17:44:48.912Z,3.40
2018-05-26T17:47:15.200Z,3.80
2018-05-26T17:49:41.525Z,4.03
2018-05-26T17:52:07.827Z,3.90
2018-05-26T17:54:34.919Z,4.07
2018-05-26T17:57:01.210Z,3.90
2018-05-26T17:59:28.226Z,3.73
2018-05-26T18:01:54.534Z,4.10
2018-05-26T18:04:20.803Z,3.90
2018-05-26T18:06:47.094Z,4.13
2018-05-26T18:09:13.389Z,3.80
2018-05-26T18:11:41.508Z,3.43
2018-05-26T18:14:07.842Z,4.03
2018-05-26T18:16:37.387Z,3.80
2018-05-26T18:19:03.684Z,3.60
2018-05-26T18:21:30.064Z,3.97
2018-05-26T18:23:56.395Z,3.53
2018-05-26T18:26:22.694Z,4.03
2018-05-26T18:28:48.962Z,4.20
2018-05-26T18:31:15.250Z,4.53
2018-05-26T18:33:43.436Z,3.93
2018-05-26T18:36:13.960Z,3.77
2018-05-26T18:38:40.988Z,3.93
2018-05-26T18:41:07.282Z,3.60
2018-05-26T18:43:33.636Z,3.97
2018-05-26T18:45:59.940Z,3.70
2018-05-26T18:48:26.222Z,4.30
2018-05-26T18:50:52.516Z,4.30
2018-05-26T18:53:18.884Z,4.07
2018-05-26T18:55:45.955Z,4.07
2018-05-26T18:58:13.002Z,3.97
2018-05-26T19:00:39.274Z,4.10
2018-05-26T19:03:05.551Z,4.13
2018-05-26T19:05:32.591Z,3.93
2018-05-26T19:07:58.899Z,4.20
2018-05-26T19:10:25.220Z,3.97
2018-05-26T19:12:51.508Z,4.10
2018-05-26T19:15:17.807Z,4.20
2018-05-26T19:17:45.168Z,4.10
2018-05-26T19:20:11.468Z,3.83
2018-05-26T19:22:37.731Z,3.93
2018-05-26T19:25:04.037Z,3.97
2018-05-26T19:27:30.363Z,4.07
2018-05-26T19:29:56.672Z,3.80
2018-05-26T19:32:22.956Z,3.53
2018-05-26T19:34:49.264Z,4.20
2018-05-26T19:37:17.709Z,4.00
2018-05-26T19:39:44.505Z,3.77
2018-05-26T19:42:10.803Z,4.07
2018-05-26T19:44:37.114Z,4.00
2018-05-26T19:47:03.455Z,4.17
2018-05-26T19:49:29.817Z,3.90
2018-05-26T19:51:56.450Z,4.10
2018-05-26T19:54:22.885Z,4.13
2018-05-26T19:56:50.080Z,4.40
2018-05-26T19:59:18.041Z,3.87
2018-05-26T20:01:46.116Z,3.60
2018-05-26T20:04:13.218Z,4.17
2018-05-26T20:06:39.532Z,4.27
2018-05-26T20:09:07.033Z,4.27
2018-05-26T20:11:33.533Z,4.07
2018-05-26T20:14:00.593Z,4.00
2018-05-26T20:16:27.985Z,4.80
2018-05-26T20:18:54.636Z,4.23
2018-05-26T20:21:21.724Z,4.20
2018-05-26T20:23:48.122Z,4.20
2018-05-26T20:26:14.772Z,4.30
2018-05-26T20:38:26.854Z,4.43
2018-05-26T20:40:54.880Z,4.40
2018-05-26T20:43:22.102Z,4.23
2018-05-26T20:45:49.136Z,4.50
2018-05-26T20:48:15.489Z,4.07
2018-05-26T20:50:43.948Z,4.17
2018-05-26T20:53:10.326Z,4.47
2018-05-26T20:55:37.141Z,4.47
2018-05-26T21:07:48.560Z,4.50
2018-05-26T21:10:14.968Z,4.60
2018-05-26T21:12:42.035Z,4.60
2018-05-26T21:15:08.431Z,4.70
2018-05-26T21:17:35.634Z,4.50
2018-05-26T21:20:03.072Z,4.37
2018-05-26T21:22:29.989Z,4.20
2018-05-26T21:24:57.149Z,4.63
2018-05-26T21:27:24.645Z,4.50
2018-05-26T21:29:51.934Z,4.50
2018-05-26T21:32:18.376Z,4.70
2018-05-26T21:34:45.696Z,5.03
2018-05-26T21:37:15.113Z,4.47
2018-05-26T21:39:42.337Z,4.70
2018-05-26T21:42:08.688Z,4.87
2018-05-26T21:44:35.111Z,4.50
2018-05-26T21:56:47.541Z,4.70
2018-05-26T22:08:59.039Z,5.50
2018-05-26T22:21:13.081Z,5.57
2018-05-26T22:23:39.536Z,5.07
2018-05-26T22:26:07.777Z,5.67
2018-05-26T22:28:35.206Z,5.00
2018-05-26T22:31:01.801Z,4.90
2018-05-26T22:33:28.924Z,5.17
2018-05-26T22:35:55.295Z,5.43
2018-05-26T22:38:25.311Z,5.33
2018-05-26T22:40:52.486Z,5.63
2018-05-26T22:43:18.844Z,5.70
2018-05-26T22:45:45.283Z,5.90
2018-05-26T22:48:12.661Z,5.70
2018-05-26T22:50:39.253Z,6.13
2018-05-26T22:53:05.571Z,6.00
2018-05-26T22:55:31.959Z,5.83
2018-05-26T22:57:59.154Z,6.30
2018-05-26T23:00:25.501Z,6.07
2018-05-26T23:02:52.175Z,6.23
2018-05-26T23:05:18.554Z,5.90
2018-05-26T23:07:44.885Z,6.10
2018-05-26T23:10:11.391Z,5.90
2018-05-26T23:12:37.761Z,5.90
2018-05-26T23:15:04.111Z,5.97
2018-05-26T23:17:31.494Z,5.53
2018-05-26T23:19:57.898Z,6.27
2018-05-26T23:32:10.241Z,6.50
2018-05-26T23:34:36.643Z,6.13
2018-05-26T23:37:04.777Z,6.10
2018-05-26T23:39:32.786Z,6.33
2018-05-26T23:42:00.069Z,6.77
2018-05-26T23:44:26.429Z,6.60
2018-05-26T23:46:52.827Z,6.37
2018-05-26T23:49:19.182Z,6.40
2018-05-26T23:51:45.521Z,6.17
2018-05-26T23:54:12.084Z,6.73
2018-05-26T23:56:38.500Z,6.07
2018-05-26T23:59:06.592Z,6.40
